Time;durP1;ratioP1;P1;durP2;ratioP2;P2;SDS_P1;SDS_P2;PMS_P1;PMS_P2;Temp;Humidity;BMP_temperature;BMP_pressure;BME280_temperature;BME280_humidity;BME280_pressure;Samples;Min_cycle;Max_cycle;Signal;HPM_P1;HPM_P2
2023/02/06 00:02:06;;;;;;;15.85;10.48;;;1.10;93.70;;;;;;5014308;28;20065;-65
2023/02/06 00:04:52;;;;;;;13.13;9.43;;;1.00;93.70;;;;;;5040955;28;20043;-65
2023/02/06 00:07:38;;;;;;;14.90;9.75;;;1.00;93.70;;;;;;5036174;28;20288;-65
2023/02/06 00:10:24;;;;;;;15.27;10.35;;;1.00;93.70;;;;;;5020800;28;20065;-66
2023/02/06 00:13:10;;;;;;;19.35;10.05;;;1.00;93.70;;;;;;5028970;28;20079;-65
2023/02/06 00:15:56;;;;;;;18.52;10.85;;;1.00;93.70;;;;;;5031320;28;20057;-65
2023/02/06 00:18:42;;;;;;;15.40;9.63;;;1.00;93.70;;;;;;5035806;28;20019;-65
2023/02/06 00:21:29;;;;;;;14.82;9.57;;;1.00;93.90;;;;;;5030858;28;20431;-65
2023/02/06 00:24:15;;;;;;;15.02;9.43;;;1.00;93.80;;;;;;5030786;28;20053;-65
2023/02/06 00:27:01;;;;;;;13.20;8.75;;;0.90;93.70;;;;;;5015720;28;20038;-65
2023/02/06 00:29:47;;;;;;;13.73;8.55;;;0.90;93.80;;;;;;5031212;28;20029;-66
2023/02/06 00:32:34;;;;;;;15.27;8.65;;;0.90;93.80;;;;;;5015601;28;20038;-65
2023/02/06 00:35:20;;;;;;;13.18;8.20;;;1.00;93.80;;;;;;5018946;28;20531;-66
2023/02/06 00:38:07;;;;;;;13.02;8.43;;;1.00;93.80;;;;;;5021174;28;20496;-65
2023/02/06 00:40:53;;;;;;;12.88;8.52;;;0.90;93.80;;;;;;5020103;28;20030;-66
2023/02/06 00:43:40;;;;;;;13.43;8.23;;;0.90;93.80;;;;;;5024377;28;20042;-65
2023/02/06 00:46:26;;;;;;;14.35;7.68;;;1.00;93.80;;;;;;5022507;28;20030;-65
2023/02/06 00:49:13;;;;;;;15.00;8.35;;;1.00;93.80;;;;;;5012085;28;20037;-65
2023/02/06 00:51:58;;;;;;;11.85;7.80;;;1.00;93.80;;;;;;5016723;28;20025;-65
2023/02/06 00:54:44;;;;;;;13.90;8.13;;;1.00;93.80;;;;;;5023717;28;20029;-65
2023/02/06 00:57:30;;;;;;;12.75;7.63;;;1.00;93.80;;;;;;5032003;28;20022;-65
2023/02/06 01:00:16;;;;;;;11.30;7.30;;;1.00;93.80;;;;;;5013622;28;20081;-65
2023/02/06 01:03:02;;;;;;;13.30;7.60;;;1.00;93.80;;;;;;5015446;28;20393;-65
2023/02/06 01:05:48;;;;;;;10.35;6.68;;;1.00;93.80;;;;;;5019586;28;20088;-65
2023/02/06 01:08:34;;;;;;;11.73;6.57;;;1.00;93.80;;;;;;5017626;28;20025;-65
2023/02/06 01:11:23;;;;;;;10.52;6.57;;;1.00;93.80;;;;;;5020071;28;20022;-65
2023/02/06 01:14:09;;;;;;;10.32;6.70;;;1.00;94.00;;;;;;5024342;28;20045;-65
2023/02/06 01:16:55;;;;;;;12.00;7.28;;;0.90;93.70;;;;;;5031945;28;20029;-66
2023/02/06 01:19:41;;;;;;;15.20;7.45;;;0.90;93.70;;;;;;5027943;28;20033;-64
2023/02/06 01:22:27;;;;;;;14.05;7.13;;;0.90;93.80;;;;;;5022683;28;20076;-65
2023/02/06 01:25:13;;;;;;;11.40;7.70;;;0.90;93.80;;;;;;5017213;28;20528;-65
2023/02/06 01:27:59;;;;;;;12.00;6.93;;;0.90;93.80;;;;;;5021164;28;20113;-65
2023/02/06 01:30:45;;;;;;;11.13;8.10;;;0.90;93.80;;;;;;5022156;28;20038;-65
2023/02/06 01:33:31;;;;;;;12.00;7.40;;;0.90;93.80;;;;;;5012967;28;20033;-66
2023/02/06 01:36:18;;;;;;;11.25;7.88;;;0.90;93.80;;;;;;5017398;28;20040;-65
2023/02/06 01:39:05;;;;;;;12.95;7.50;;;0.90;93.80;;;;;;5012715;28;20472;-65
2023/02/06 01:41:51;;;;;;;13.82;7.55;;;0.90;93.80;;;;;;5015529;28;20034;-65
2023/02/06 01:44:38;;;;;;;11.35;7.60;;;0.90;93.80;;;;;;5013707;28;20041;-65
2023/02/06 01:47:24;;;;;;;10.68;7.43;;;1.00;93.90;;;;;;5026457;28;20398;-65
2023/02/06 01:50:10;;;;;;;10.93;7.22;;;1.00;93.80;;;;;;5035559;28;20440;-65
2023/02/06 01:52:56;;;;;;;12.48;7.00;;;0.90;93.80;;;;;;5012411;28;20034;-65
2023/02/06 01:55:44;;;;;;;11.48;6.65;;;1.00;93.90;;;;;;5028869;28;20035;-66
2023/02/06 01:58:35;;;;;;;14.10;7.05;;;1.00;93.90;;;;;;5015277;28;20404;-66
2023/02/06 02:01:21;;;;;;;11.25;7.60;;;0.90;93.80;;;;;;5024174;28;20030;-66
2023/02/06 02:04:13;;;;;;;13.68;6.85;;;0.90;93.80;;;;;;5011677;28;20037;-65
2023/02/06 02:07:09;;;;;;;12.32;7.35;;;0.90;93.80;;;;;;5011592;28;20026;-66
2023/02/06 02:09:56;;;;;;;14.68;7.57;;;0.90;93.80;;;;;;5016453;28;20037;-65
2023/02/06 02:12:42;;;;;;;11.90;6.80;;;0.90;93.80;;;;;;4997733;28;20044;-65
2023/02/06 02:15:55;;;;;;;12.50;7.78;;;0.90;93.80;;;;;;5021987;28;20037;-66
2023/02/06 02:18:59;;;;;;;11.05;6.75;;;0.90;93.80;;;;;;5018901;28;20030;-66
2023/02/06 02:22:09;;;;;;;13.75;7.20;;;0.80;93.80;;;;;;5012160;28;20033;-66
2023/02/06 02:25:21;;;;;;;12.18;6.88;;;0.80;93.80;;;;;;5033315;28;20545;-66
2023/02/06 02:28:38;;;;;;;10.88;5.97;;;0.80;93.80;;;;;;5018886;28;20021;-66
2023/02/06 02:32:02;;;;;;;11.15;6.90;;;0.70;93.80;;;;;;5026152;28;20033;-66
2023/02/06 02:35:04;;;;;;;12.60;7.47;;;0.70;93.80;;;;;;5032096;28;20105;-66
2023/02/06 02:38:09;;;;;;;11.45;6.70;;;0.70;93.80;;;;;;5004367;28;20056;-66
2023/02/06 02:41:26;;;;;;;15.70;8.40;;;0.70;93.90;;;;;;5016385;28;20034;-66
2023/02/06 02:44:28;;;;;;;13.02;8.15;;;0.70;93.90;;;;;;5024358;28;20128;-67
2023/02/06 02:47:17;;;;;;;13.07;9.02;;;0.70;93.90;;;;;;5019942;28;20038;-65
2023/02/06 02:50:04;;;;;;;15.13;8.95;;;0.70;94.00;;;;;;5029575;28;20116;-66
2023/02/06 02:52:51;;;;;;;13.45;8.63;;;0.80;94.00;;;;;;5023056;28;20116;-66
2023/02/06 02:55:36;;;;;;;14.65;7.97;;;0.80;94.00;;;;;;5027568;28;20022;-66
2023/02/06 02:58:31;;;;;;;13.38;8.30;;;0.90;94.10;;;;;;5015048;28;20436;-66
2023/02/06 03:01:22;;;;;;;11.80;7.45;;;1.00;94.10;;;;;;5016166;28;20056;-66
2023/02/06 03:04:22;;;;;;;11.75;7.43;;;1.00;94.10;;;;;;5021032;28;20030;-66
2023/02/06 03:07:20;;;;;;;10.45;6.32;;;1.10;94.10;;;;;;5018495;28;20026;-66
2023/02/06 03:10:33;;;;;;;9.55;6.03;;;1.10;94.00;;;;;;5019832;28;20030;-65
2023/02/06 03:13:33;;;;;;;10.55;6.88;;;1.20;94.10;;;;;;5019432;28;20022;-65
2023/02/06 03:16:24;;;;;;;11.30;6.72;;;1.20;94.00;;;;;;5012078;28;20030;-66
2023/02/06 03:19:15;;;;;;;12.18;7.30;;;1.20;93.90;;;;;;5015301;28;20164;-65
2023/02/06 03:22:02;;;;;;;9.32;6.95;;;1.20;94.00;;;;;;5019567;28;20030;-66
2023/02/06 03:24:51;;;;;;;11.85;7.85;;;1.20;94.00;;;;;;5036927;28;20429;-66
2023/02/06 03:27:39;;;;;;;12.23;7.25;;;1.20;94.00;;;;;;5027074;28;20029;-66
2023/02/06 03:30:28;;;;;;;14.00;7.32;;;1.30;94.00;;;;;;5043596;28;20607;-66
2023/02/06 03:33:18;;;;;;;11.15;7.13;;;1.30;94.00;;;;;;5034825;28;20037;-66
2023/02/06 03:36:05;;;;;;;12.25;6.95;;;1.30;94.00;;;;;;5006718;28;20557;-66
2023/02/06 03:38:51;;;;;;;10.77;7.07;;;1.40;94.00;;;;;;5020260;28;20057;-65
2023/02/06 03:41:39;;;;;;;10.90;6.65;;;1.40;94.00;;;;;;5017413;28;20038;-66
2023/02/06 03:44:30;;;;;;;9.93;6.45;;;1.50;94.00;;;;;;5022893;28;20519;-66
2023/02/06 03:47:17;;;;;;;11.10;6.53;;;1.60;94.00;;;;;;5023708;28;20029;-66
2023/02/06 03:50:07;;;;;;;10.77;6.53;;;1.60;93.90;;;;;;5018989;28;20490;-67
2023/02/06 03:52:56;;;;;;;10.65;6.50;;;1.60;93.90;;;;;;5031436;28;20029;-70
2023/02/06 03:55:45;;;;;;;11.43;6.22;;;1.70;93.90;;;;;;5021749;28;20022;-73
2023/02/06 03:58:31;;;;;;;10.60;6.75;;;1.70;93.80;;;;;;5025031;28;20620;-70
2023/02/06 04:01:17;;;;;;;11.27;6.60;;;1.80;94.00;;;;;;5018602;28;20045;-72
2023/02/06 04:04:04;;;;;;;11.07;5.97;;;1.80;93.80;;;;;;5020411;28;20124;-71
2023/02/06 04:06:50;;;;;;;8.52;5.05;;;1.80;93.70;;;;;;5020695;28;20068;-71
2023/02/06 04:09:36;;;;;;;8.98;6.15;;;1.90;93.60;;;;;;5026252;28;20061;-72
2023/02/06 04:12:23;;;;;;;8.57;5.32;;;1.90;93.60;;;;;;5037471;28;20026;-73
2023/02/06 04:15:09;;;;;;;8.52;6.00;;;1.90;93.50;;;;;;5023118;28;20111;-72
2023/02/06 04:17:55;;;;;;;10.25;6.63;;;2.00;93.50;;;;;;5026739;28;20032;-72
2023/02/06 04:20:41;;;;;;;9.23;6.00;;;2.00;93.50;;;;;;5037264;28;20427;-71
2023/02/06 04:23:27;;;;;;;8.65;5.63;;;2.00;93.40;;;;;;5029210;28;20092;-72
2023/02/06 04:26:13;;;;;;;11.75;5.32;;;2.00;93.40;;;;;;5017197;28;20080;-72
2023/02/06 04:28:59;;;;;;;9.63;5.28;;;2.10;93.40;;;;;;5014770;28;20400;-72
2023/02/06 04:31:45;;;;;;;7.40;5.30;;;2.10;93.40;;;;;;5044807;28;20108;-72
2023/02/06 04:34:35;;;;;;;6.30;4.57;;;2.10;93.30;;;;;;5004474;28;20069;-72
2023/02/06 04:37:21;;;;;;;11.13;5.75;;;2.20;93.30;;;;;;5001775;28;20509;-72
2023/02/06 04:40:08;;;;;;;8.98;5.45;;;2.20;93.30;;;;;;5009320;28;20030;-71
2023/02/06 04:42:54;;;;;;;8.80;5.07;;;2.20;93.20;;;;;;5017056;28;20053;-72
2023/02/06 04:45:40;;;;;;;8.18;4.95;;;2.20;93.20;;;;;;5022572;28;20392;-72
2023/02/06 04:48:26;;;;;;;8.73;5.78;;;2.20;93.20;;;;;;5020246;28;20044;-72
2023/02/06 04:51:13;;;;;;;9.63;5.88;;;2.20;93.30;;;;;;5019949;28;20030;-72
2023/02/06 04:54:00;;;;;;;8.43;5.10;;;2.20;93.30;;;;;;5026978;28;20076;-72
2023/02/06 04:56:46;;;;;;;8.10;4.85;;;2.20;93.30;;;;;;5038803;28;20401;-73
2023/02/06 04:59:32;;;;;;;7.97;4.90;;;2.20;93.40;;;;;;5019773;28;20054;-73
2023/02/06 05:02:18;;;;;;;8.32;4.97;;;2.20;93.50;;;;;;5023146;28;20038;-73
2023/02/06 05:05:05;;;;;;;9.15;5.53;;;2.20;93.50;;;;;;5032650;28;20083;-73
2023/02/06 05:07:51;;;;;;;10.32;5.80;;;2.30;93.60;;;;;;5018049;28;20021;-73
2023/02/06 05:10:37;;;;;;;7.72;5.57;;;2.30;93.60;;;;;;5033964;28;20069;-73
2023/02/06 05:13:23;;;;;;;8.60;4.78;;;2.30;93.80;;;;;;5029139;28;20177;-71
2023/02/06 05:16:11;;;;;;;9.38;5.60;;;2.30;93.80;;;;;;5011882;28;20064;-72
2023/02/06 05:18:57;;;;;;;7.82;4.63;;;2.30;93.90;;;;;;5022389;28;20091;-73
2023/02/06 05:21:43;;;;;;;8.65;5.43;;;2.30;94.00;;;;;;5023823;28;20116;-73
2023/02/06 05:24:30;;;;;;;8.68;5.25;;;2.30;94.10;;;;;;5014169;28;20048;-72
2023/02/06 05:27:16;;;;;;;7.50;4.82;;;2.30;94.20;;;;;;5013764;28;20091;-73
2023/02/06 05:30:02;;;;;;;7.88;4.93;;;2.30;94.30;;;;;;5037748;28;20048;-73
2023/02/06 05:32:48;;;;;;;8.63;5.18;;;2.30;94.30;;;;;;5018490;28;20025;-73
2023/02/06 05:35:36;;;;;;;9.30;5.25;;;2.30;94.40;;;;;;5010986;28;20112;-73
2023/02/06 05:38:22;;;;;;;9.82;5.30;;;2.30;94.40;;;;;;5027121;28;20033;-73
2023/02/06 05:41:08;;;;;;;9.05;5.40;;;2.30;94.50;;;;;;5041466;28;20048;-73
2023/02/06 05:43:54;;;;;;;8.07;5.28;;;2.20;94.60;;;;;;5035850;28;20074;-73
2023/02/06 05:46:40;;;;;;;9.98;5.88;;;2.20;94.70;;;;;;5015594;28;20034;-74
2023/02/06 05:49:26;;;;;;;9.05;5.68;;;2.20;94.80;;;;;;5037033;28;20029;-73
2023/02/06 05:52:11;;;;;;;9.05;5.40;;;2.20;94.80;;;;;;5044690;28;20064;-73
2023/02/06 05:54:57;;;;;;;8.98;5.35;;;2.20;94.90;;;;;;5030447;28;20033;-73
2023/02/06 05:57:44;;;;;;;7.47;5.40;;;2.20;95.00;;;;;;4999747;28;20229;-72
2023/02/06 06:00:30;;;;;;;9.75;5.10;;;2.20;95.00;;;;;;5025132;28;20531;-72
2023/02/06 06:03:16;;;;;;;11.55;5.07;;;2.30;95.10;;;;;;5016286;28;20048;-72
2023/02/06 06:06:01;;;;;;;7.38;4.82;;;2.30;95.10;;;;;;5021248;28;20044;-72
2023/02/06 06:08:47;;;;;;;8.57;5.80;;;2.30;95.20;;;;;;5021302;28;20083;-71
2023/02/06 06:11:33;;;;;;;12.23;6.43;;;2.30;95.30;;;;;;5029112;28;20084;-72
2023/02/06 06:14:19;;;;;;;10.48;6.38;;;2.30;95.30;;;;;;5015408;28;20025;-71
2023/02/06 06:17:05;;;;;;;8.07;5.55;;;2.40;95.40;;;;;;5022176;28;20412;-72
2023/02/06 06:19:51;;;;;;;10.43;5.43;;;2.40;95.40;;;;;;5011769;28;20473;-72
2023/02/06 06:22:37;;;;;;;10.02;6.57;;;2.40;95.50;;;;;;5036342;28;20026;-72
2023/02/06 06:25:23;;;;;;;13.20;7.50;;;2.50;95.50;;;;;;5024922;28;20498;-71
2023/02/06 06:28:09;;;;;;;14.85;7.68;;;2.40;95.50;;;;;;5010404;28;20034;-72
2023/02/06 06:31:03;;;;;;;13.25;7.88;;;2.40;95.60;;;;;;5016082;28;20044;-71
2023/02/06 06:33:49;;;;;;;12.65;7.88;;;2.40;95.70;;;;;;5015409;28;20049;-71
2023/02/06 06:36:35;;;;;;;13.68;7.15;;;2.40;95.80;;;;;;5029367;28;20044;-72
2023/02/06 06:39:21;;;;;;;12.02;8.20;;;2.40;95.80;;;;;;5030468;28;20365;-71
2023/02/06 06:42:07;;;;;;;11.90;7.18;;;2.40;95.90;;;;;;5022889;28;20512;-71
2023/02/06 06:44:53;;;;;;;14.88;6.65;;;2.50;96.00;;;;;;5024874;28;20025;-71
2023/02/06 06:47:39;;;;;;;9.63;6.45;;;2.50;96.00;;;;;;5014261;28;20124;-71
2023/02/06 06:50:25;;;;;;;10.38;6.18;;;2.50;96.00;;;;;;5029776;28;20104;-71
2023/02/06 06:53:11;;;;;;;10.20;7.13;;;2.60;96.10;;;;;;5022578;28;20555;-71
2023/02/06 06:56:04;;;;;;;11.05;6.63;;;2.50;96.10;;;;;;5018024;28;20026;-72
2023/02/06 06:58:50;;;;;;;10.50;6.95;;;2.60;96.20;;;;;;5005616;28;20132;-71
2023/02/06 07:01:36;;;;;;;10.25;6.80;;;2.60;96.20;;;;;;5037304;28;20035;-71
2023/02/06 07:04:22;;;;;;;10.57;6.50;;;2.60;96.20;;;;;;5020061;28;20068;-71
2023/02/06 07:07:08;;;;;;;9.10;6.25;;;2.60;96.30;;;;;;5013702;28;20022;-65
2023/02/06 07:09:54;;;;;;;9.23;6.90;;;2.50;96.30;;;;;;5016675;28;20065;-71
2023/02/06 07:12:40;;;;;;;12.35;7.32;;;2.50;96.40;;;;;;5011525;28;20065;-75
2023/02/06 07:15:26;;;;;;;11.30;6.43;;;2.50;96.50;;;;;;5010997;28;20029;-72
2023/02/06 07:18:12;;;;;;;9.85;6.63;;;2.60;96.60;;;;;;5024035;28;20297;-79
2023/02/06 07:20:58;;;;;;;9.50;6.55;;;2.60;96.60;;;;;;5021652;28;20080;-79
2023/02/06 07:23:45;;;;;;;9.43;6.57;;;2.60;96.60;;;;;;5036337;28;20140;-78
2023/02/06 07:26:30;;;;;;;9.40;7.30;;;2.60;96.70;;;;;;5032500;28;20108;-77
2023/02/06 07:29:16;;;;;;;13.02;7.22;;;2.60;96.70;;;;;;5019496;28;20034;-77
2023/02/06 07:32:04;;;;;;;14.18;8.23;;;2.70;96.80;;;;;;5015320;28;20022;-77
2023/02/06 07:34:49;;;;;;;13.10;6.90;;;2.70;96.80;;;;;;5003462;28;20025;-78
2023/02/06 07:37:35;;;;;;;10.10;7.50;;;2.70;96.80;;;;;;5005898;28;20033;-77
2023/02/06 07:40:22;;;;;;;13.13;7.93;;;2.70;97.00;;;;;;5006593;28;20119;-77
2023/02/06 07:43:08;;;;;;;11.25;6.88;;;2.80;97.00;;;;;;4998171;28;20147;-71
2023/02/06 07:45:58;;;;;;;10.10;6.93;;;2.90;97.00;;;;;;5018940;28;20065;-75
2023/02/06 07:48:44;;;;;;;12.43;7.30;;;2.90;97.10;;;;;;5018838;28;20033;-77
2023/02/06 07:51:30;;;;;;;12.15;8.15;;;2.90;97.00;;;;;;5019951;28;20026;-76
2023/02/06 07:54:16;;;;;;;10.15;7.05;;;3.00;97.10;;;;;;5024135;28;20069;-76
2023/02/06 07:57:02;;;;;;;11.57;7.18;;;3.00;97.10;;;;;;5015793;28;20079;-75
2023/02/06 07:59:48;;;;;;;19.60;8.02;;;3.00;97.10;;;;;;5001314;28;20045;-76
2023/02/06 08:02:34;;;;;;;13.85;7.70;;;3.10;97.10;;;;;;5025405;28;20077;-75
2023/02/06 08:05:20;;;;;;;12.23;7.88;;;3.20;97.10;;;;;;5019777;28;20033;-75
2023/02/06 08:08:06;;;;;;;15.05;8.82;;;3.20;97.10;;;;;;5038602;28;20504;-76
2023/02/06 08:10:52;;;;;;;19.08;9.68;;;3.30;97.10;;;;;;5024495;28;20030;-76
2023/02/06 08:13:38;;;;;;;12.07;8.57;;;3.30;97.10;;;;;;5032349;28;20434;-76
2023/02/06 08:16:24;;;;;;;15.98;9.27;;;3.30;97.10;;;;;;5015019;28;20033;-76
2023/02/06 08:19:11;;;;;;;12.35;9.05;;;3.30;97.10;;;;;;5022174;28;20477;-75
2023/02/06 08:21:57;;;;;;;13.43;9.02;;;3.30;97.20;;;;;;5025731;28;20519;-76
2023/02/06 08:24:43;;;;;;;12.82;7.88;;;3.30;97.30;;;;;;5024710;28;20045;-74
2023/02/06 08:27:29;;;;;;;13.43;9.13;;;3.40;97.40;;;;;;5025559;28;20061;-70
2023/02/06 08:30:15;;;;;;;11.82;8.85;;;3.50;97.40;;;;;;5038164;28;20033;-74
2023/02/06 08:33:01;;;;;;;15.00;10.07;;;3.50;97.40;;;;;;5024316;28;20026;-73
2023/02/06 08:35:47;;;;;;;14.55;9.55;;;3.50;97.40;;;;;;5019361;28;20104;-73
2023/02/06 08:38:33;;;;;;;13.05;8.98;;;3.60;97.40;;;;;;5019085;28;20033;-73
2023/02/06 08:41:23;;;;;;;16.38;10.50;;;3.60;97.40;;;;;;5014626;28;20030;-73
2023/02/06 08:44:15;;;;;;;16.05;11.43;;;3.60;97.40;;;;;;5022793;28;20030;-73
2023/02/06 08:47:00;;;;;;;15.40;10.63;;;3.70;97.40;;;;;;5020027;28;20018;-73
2023/02/06 08:49:49;;;;;;;16.90;11.15;;;3.70;97.40;;;;;;5027358;28;20080;-73
2023/02/06 08:52:35;;;;;;;18.33;12.15;;;3.60;97.40;;;;;;5016221;28;20045;-72
2023/02/06 08:55:21;;;;;;;18.42;12.05;;;3.60;97.40;;;;;;5023487;28;20506;-72
2023/02/06 08:58:07;;;;;;;18.80;11.95;;;3.60;97.50;;;;;;5016806;28;20033;-71
2023/02/06 09:00:53;;;;;;;19.48;11.68;;;3.60;97.40;;;;;;5023405;28;20026;-69
2023/02/06 09:03:40;;;;;;;19.42;11.82;;;3.60;97.40;;;;;;5024065;28;20103;-68
2023/02/06 09:06:27;;;;;;;18.73;11.57;;;3.60;97.50;;;;;;5025302;28;20068;-69
2023/02/06 09:09:13;;;;;;;20.70;12.68;;;3.60;97.50;;;;;;5018203;28;20102;-69
2023/02/06 09:12:02;;;;;;;21.17;12.40;;;3.60;97.60;;;;;;5026663;28;20033;-68
2023/02/06 09:14:48;;;;;;;22.60;12.57;;;3.60;97.50;;;;;;5012516;28;20049;-69
2023/02/06 09:17:34;;;;;;;19.63;12.13;;;3.60;97.60;;;;;;5038063;28;20041;-69
2023/02/06 09:20:21;;;;;;;20.30;11.55;;;3.60;97.70;;;;;;5031723;28;20537;-69
2023/02/06 09:23:07;;;;;;;24.98;13.68;;;3.50;97.70;;;;;;5033029;28;20037;-69
2023/02/06 09:25:53;;;;;;;24.65;14.15;;;3.50;97.70;;;;;;5016711;28;20022;-69
2023/02/06 09:28:39;;;;;;;23.85;14.77;;;3.50;97.80;;;;;;5018953;28;20046;-69
2023/02/06 09:31:29;;;;;;;23.42;13.05;;;3.40;97.70;;;;;;5018677;28;20022;-69
2023/02/06 09:34:15;;;;;;;19.02;12.25;;;3.30;97.70;;;;;;5019384;28;20068;-68
2023/02/06 09:37:02;;;;;;;24.77;13.38;;;3.20;97.80;;;;;;5029874;28;20082;-68
2023/02/06 09:39:48;;;;;;;23.77;13.88;;;3.20;97.90;;;;;;5024378;28;20022;-69
2023/02/06 09:42:37;;;;;;;22.40;13.00;;;3.20;98.00;;;;;;5009580;28;20037;-66
2023/02/06 09:45:27;;;;;;;25.25;14.60;;;3.20;98.00;;;;;;4998741;28;20505;-66
2023/02/06 09:48:21;;;;;;;23.48;13.70;;;3.10;98.10;;;;;;5022836;28;20407;-65
2023/02/06 09:51:38;;;;;;;26.95;14.38;;;3.10;98.20;;;;;;5022372;28;20554;-65
2023/02/06 09:54:52;;;;;;;26.63;14.90;;;3.10;98.50;;;;;;5023495;28;20404;-65
2023/02/06 09:58:04;;;;;;;23.85;14.45;;;3.00;98.20;;;;;;5012403;28;20037;-66
2023/02/06 10:00:57;;;;;;;24.92;14.15;;;2.90;98.30;;;;;;5019490;28;20497;-64
2023/02/06 10:03:55;;;;;;;26.45;14.73;;;2.90;98.40;;;;;;5021046;28;20049;-65
2023/02/06 10:06:49;;;;;;;32.65;16.23;;;2.70;98.80;;;;;;5020899;28;20370;-64
2023/02/06 10:09:47;;;;;;;27.08;13.95;;;2.60;99.30;;;;;;5022656;28;20033;-67
2023/02/06 10:12:36;;;;;;;24.67;14.13;;;2.40;99.60;;;;;;5020461;28;20519;-66
2023/02/06 10:15:30;;;;;;;30.10;13.18;;;2.20;99.90;;;;;;5013510;28;20034;-66
2023/02/06 10:18:35;;;;;;;31.33;16.17;;;2.10;99.90;;;;;;5022986;28;20041;-64
2023/02/06 10:21:36;;;;;;;31.27;16.95;;;2.00;99.90;;;;;;5021182;28;20366;-66
2023/02/06 10:24:29;;;;;;;24.88;13.05;;;1.90;99.90;;;;;;5037887;28;20053;-66
2023/02/06 10:27:16;;;;;;;25.17;13.05;;;1.80;99.90;;;;;;5011271;28;20061;-65
2023/02/06 10:30:02;;;;;;;23.08;13.15;;;1.80;99.90;;;;;;5016671;28;20025;-64
2023/02/06 10:32:55;;;;;;;23.50;12.75;;;1.70;99.90;;;;;;5015389;28;20033;-65
2023/02/06 10:36:23;;;;;;;25.17;12.82;;;1.70;99.90;;;;;;5014557;28;20026;-66
2023/02/06 10:39:45;;;;;;;26.27;12.63;;;1.80;99.90;;;;;;4981101;28;20041;-64
2023/02/06 10:42:55;;;;;;;21.30;11.77;;;1.80;99.90;;;;;;5028848;28;20152;-68
2023/02/06 10:45:52;;;;;;;21.20;11.20;;;1.80;99.90;;;;;;5020118;28;20469;-68
2023/02/06 10:49:08;;;;;;;20.48;12.20;;;1.80;99.90;;;;;;5022588;28;20036;-67
2023/02/06 10:52:01;;;;;;;22.17;11.98;;;1.90;99.90;;;;;;5018621;28;20128;-66
2023/02/06 10:54:54;;;;;;;24.95;13.50;;;1.80;99.90;;;;;;5006215;28;20068;-65
2023/02/06 10:57:43;;;;;;;25.73;11.93;;;1.80;99.90;;;;;;5015439;28;20021;-66
2023/02/06 11:00:31;;;;;;;25.75;13.93;;;1.80;99.90;;;;;;5021196;28;20434;-66
2023/02/06 11:03:20;;;;;;;22.88;13.50;;;1.80;99.90;;;;;;5015410;28;20044;-67
2023/02/06 11:06:10;;;;;;;25.48;13.93;;;1.80;99.90;;;;;;5004749;28;20085;-67
2023/02/06 11:08:56;;;;;;;32.13;14.30;;;1.80;99.90;;;;;;5005482;28;20033;-67
2023/02/06 11:11:50;;;;;;;28.63;15.30;;;1.80;99.90;;;;;;5015778;28;20069;-67
2023/02/06 11:14:38;;;;;;;30.48;14.60;;;1.80;99.90;;;;;;5011126;28;20087;-67
2023/02/06 11:17:27;;;;;;;29.50;14.23;;;1.80;99.90;;;;;;5028313;28;20132;-68
2023/02/06 11:20:21;;;;;;;27.10;14.05;;;1.80;99.90;;;;;;5025374;28;20029;-67
2023/02/06 11:23:20;;;;;;;26.80;14.23;;;1.80;99.90;;;;;;5024562;28;20044;-67
2023/02/06 11:26:13;;;;;;;31.83;15.95;;;1.80;99.90;;;;;;5019568;28;20048;-68
2023/02/06 11:29:13;;;;;;;27.92;15.77;;;1.80;99.90;;;;;;5025482;28;20398;-68
2023/02/06 11:32:01;;;;;;;27.58;14.75;;;1.80;99.90;;;;;;5015313;28;20064;-67
2023/02/06 11:34:59;;;;;;;32.08;15.13;;;1.90;99.90;;;;;;5014936;28;20037;-67
2023/02/06 11:37:50;;;;;;;25.80;15.68;;;1.90;99.90;;;;;;5020038;28;20022;-68
2023/02/06 11:40:36;;;;;;;26.85;14.88;;;1.90;99.90;;;;;;5012813;28;20030;-69
2023/02/06 11:43:25;;;;;;;35.75;16.92;;;1.90;99.90;;;;;;5017881;28;20041;-68
2023/02/06 11:46:13;;;;;;;26.83;15.15;;;1.90;99.90;;;;;;5013288;28;20040;-68
2023/02/06 11:49:06;;;;;;;26.90;14.48;;;2.00;99.90;;;;;;5025681;28;20041;-68
2023/02/06 11:51:55;;;;;;;33.13;17.17;;;2.00;99.90;;;;;;5019605;28;20481;-68
2023/02/06 11:54:53;;;;;;;29.38;16.45;;;2.00;99.90;;;;;;5031257;28;20037;-68
2023/02/06 11:57:39;;;;;;;30.10;16.77;;;2.10;99.90;;;;;;5026725;28;20048;-68
2023/02/06 12:00:25;;;;;;;27.80;15.57;;;2.10;99.90;;;;;;5014487;28;20132;-68
2023/02/06 12:03:33;;;;;;;30.58;17.05;;;2.20;99.90;;;;;;5040996;28;20102;-68
2023/02/06 12:06:39;;;;;;;27.58;16.48;;;2.20;99.90;;;;;;5023410;28;20385;-68
2023/02/06 12:09:26;;;;;;;27.67;15.13;;;2.20;99.90;;;;;;5019774;28;20053;-68
2023/02/06 12:12:24;;;;;;;25.50;14.20;;;2.20;99.90;;;;;;5031922;28;20060;-68
2023/02/06 12:15:15;;;;;;;21.75;12.93;;;2.30;99.90;;;;;;5031098;28;20517;-68
2023/02/06 12:18:12;;;;;;;23.08;13.45;;;2.30;99.90;;;;;;5013786;28;20033;-69
2023/02/06 12:21:12;;;;;;;20.55;13.25;;;2.40;99.90;;;;;;5026535;28;20298;-69
2023/02/06 12:24:20;;;;;;;19.88;12.20;;;2.50;99.90;;;;;;5022137;28;20056;-68
2023/02/06 12:27:16;;;;;;;18.35;11.25;;;2.50;99.90;;;;;;5025023;28;20022;-68
2023/02/06 12:30:24;;;;;;;22.77;13.18;;;2.60;99.90;;;;;;5014030;28;20042;-69
2023/02/06 12:33:35;;;;;;;23.38;13.63;;;2.60;99.90;;;;;;5024311;28;20500;-68
2023/02/06 12:36:26;;;;;;;22.73;12.32;;;2.50;99.90;;;;;;5025572;28;20030;-68
2023/02/06 12:39:21;;;;;;;17.77;10.93;;;2.50;99.90;;;;;;5014463;28;20030;-69
2023/02/06 12:42:26;;;;;;;18.05;11.82;;;2.40;99.90;;;;;;5027266;28;20393;-69
2023/02/06 12:45:45;;;;;;;18.90;11.25;;;2.40;99.90;;;;;;5025131;28;20057;-68
2023/02/06 12:48:40;;;;;;;19.25;10.98;;;2.30;99.90;;;;;;5014686;28;20370;-68
2023/02/06 12:51:50;;;;;;;22.38;12.48;;;2.30;99.90;;;;;;5022672;28;20033;-68
2023/02/06 12:54:55;;;;;;;18.88;12.55;;;2.40;99.90;;;;;;5018215;28;20588;-69
2023/02/06 12:57:41;;;;;;;20.50;12.67;;;2.40;99.90;;;;;;5015665;28;20018;-68
2023/02/06 13:00:55;;;;;;;23.95;15.02;;;2.50;99.90;;;;;;5013624;28;20273;-68
2023/02/06 13:03:54;;;;;;;19.23;11.32;;;2.60;99.90;;;;;;5030075;28;20047;-69
2023/02/06 13:07:02;;;;;;;20.20;12.63;;;2.70;99.90;;;;;;5016093;28;20029;-68
2023/02/06 13:10:01;;;;;;;19.60;12.50;;;2.80;99.90;;;;;;5012221;28;20457;-68
2023/02/06 13:12:58;;;;;;;17.65;11.32;;;2.80;99.90;;;;;;5017091;28;20025;-68
2023/02/06 13:15:53;;;;;;;19.52;12.25;;;2.80;99.90;;;;;;5028716;28;20034;-68
2023/02/06 13:18:49;;;;;;;16.85;11.20;;;2.80;99.90;;;;;;5013663;28;20038;-68
2023/02/06 13:21:35;;;;;;;;;;;2.80;99.90;;;;;;5002918;28;20037;-68
2023/02/06 13:24:21;;;;;;;;;;;2.80;99.80;;;;;;5012860;28;20008;-68
2023/02/06 13:27:07;;;;;;;17.30;10.55;;;2.80;99.70;;;;;;5007367;28;20274;-68
2023/02/06 13:29:53;;;;;;;14.10;9.93;;;2.80;99.80;;;;;;5014230;28;20042;-68
2023/02/06 13:32:41;;;;;;;16.95;11.05;;;2.70;99.60;;;;;;5016013;28;20510;-68
2023/02/06 13:35:29;;;;;;;16.60;11.13;;;2.70;99.60;;;;;;5023947;28;20037;-68
2023/02/06 13:38:21;;;;;;;15.65;10.35;;;2.70;99.70;;;;;;5019309;28;20038;-68
2023/02/06 13:41:13;;;;;;;18.42;11.40;;;2.80;99.70;;;;;;5019965;28;20029;-68
2023/02/06 13:44:05;;;;;;;18.75;11.65;;;2.80;99.70;;;;;;5026561;28;20044;-68
2023/02/06 13:47:21;;;;;;;21.40;11.57;;;2.80;99.60;;;;;;5016750;28;20064;-69
2023/02/06 13:50:53;;;;;;;16.67;9.97;;;2.90;99.70;;;;;;5003126;28;20037;-69
2023/02/06 13:54:17;;;;;;;19.33;11.95;;;3.00;99.60;;;;;;4970678;28;20769;-68
2023/02/06 13:57:28;;;;;;;16.45;10.05;;;3.00;99.50;;;;;;5020270;28;20030;-68
2023/02/06 14:00:22;;;;;;;14.60;9.90;;;3.00;99.50;;;;;;5030911;28;20053;-68
2023/02/06 14:03:22;;;;;;;15.40;9.80;;;3.00;99.50;;;;;;5032482;28;20083;-68
2023/02/06 14:06:25;;;;;;;16.73;10.25;;;3.10;99.50;;;;;;5015566;28;20026;-68
2023/02/06 14:09:29;;;;;;;15.45;10.07;;;3.10;99.40;;;;;;5018122;28;20121;-68
2023/02/06 14:12:43;;;;;;;17.50;10.02;;;3.20;99.20;;;;;;5020067;28;20033;-68
2023/02/06 14:15:37;;;;;;;14.75;9.32;;;3.10;99.00;;;;;;5018860;28;20033;-68
2023/02/06 14:18:43;;;;;;;13.88;9.48;;;3.10;99.10;;;;;;5023778;28;20048;-69
2023/02/06 14:21:37;;;;;;;18.20;9.88;;;3.20;99.20;;;;;;5011764;28;20481;-69
2023/02/06 14:25:03;;;;;;;22.00;10.90;;;3.20;99.10;;;;;;5029344;28;20041;-68
2023/02/06 14:27:51;;;;;;;16.02;10.32;;;3.10;98.90;;;;;;5020991;28;20389;-68
2023/02/06 14:30:57;;;;;;;18.55;10.80;;;3.10;98.90;;;;;;5012593;28;20152;-67
2023/02/06 14:34:02;;;;;;;17.65;10.00;;;3.00;98.90;;;;;;4998574;28;20022;-68
2023/02/06 14:37:20;;;;;;;14.70;9.88;;;2.90;98.90;;;;;;5011645;28;20033;-68
2023/02/06 14:40:27;;;;;;;17.83;10.25;;;3.00;99.00;;;;;;5015135;28;20033;-68
2023/02/06 14:43:19;;;;;;;17.40;9.18;;;3.10;99.00;;;;;;5022404;28;20049;-68
2023/02/06 14:46:09;;;;;;;15.15;8.77;;;3.00;98.80;;;;;;5030054;28;20030;-68
2023/02/06 14:48:58;;;;;;;14.35;9.57;;;2.90;98.80;;;;;;5002510;28;20034;-68
2023/02/06 14:51:49;;;;;;;13.63;8.82;;;2.90;98.80;;;;;;5018045;28;20084;-68